Time;durP1;ratioP1;P1;durP2;ratioP2;P2;SDS_P1;SDS_P2;PMS_P1;PMS_P2;Temp;Humidity;BMP_temperature;BMP_pressure;BME280_temperature;BME280_humidity;BME280_pressure;Samples;Min_cycle;Max_cycle;Signal;HPM_P1;HPM_P2
2021/11/13 00:02:01;;;;;;;;;;;3.90;1.00;;;;;;4992199;28;20008;-69
2021/11/13 00:04:26;;;;;;;;;;;3.90;1.00;;;;;;4993095;28;19922;-69
2021/11/13 00:06:52;;;;;;;;;;;4.00;1.00;;;;;;4991126;28;19960;-67
2021/11/13 00:09:17;;;;;;;;;;;3.90;1.00;;;;;;4993510;28;20213;-68
2021/11/13 00:11:43;;;;;;;;;;;3.80;1.00;;;;;;4992490;28;19933;-68
2021/11/13 00:14:16;;;;;;;;;;;3.80;1.00;;;;;;4992544;28;19929;-68
2021/11/13 00:16:41;;;;;;;;;;;3.80;1.00;;;;;;4992433;28;19964;-68
2021/11/13 00:19:07;;;;;;;;;;;3.90;1.00;;;;;;4992319;28;19960;-69
2021/11/13 00:21:32;;;;;;;;;;;3.90;1.00;;;;;;4992421;28;20305;-68
2021/11/13 00:23:58;;;;;;;;;;;3.90;1.00;;;;;;4991092;28;19918;-69
2021/11/13 00:26:23;;;;;;;;;;;3.90;1.00;;;;;;4992967;28;19914;-68
2021/11/13 00:28:49;;;;;;;;;;;3.90;1.00;;;;;;4992535;28;20000;-67
2021/11/13 00:31:14;;;;;;;;;;;3.90;1.00;;;;;;4992530;28;19961;-68
2021/11/13 00:33:40;;;;;;;;;;;3.90;1.00;;;;;;4991975;28;19921;-68
2021/11/13 00:36:05;;;;;;;;;;;3.90;1.00;;;;;;4991846;28;20406;-68
2021/11/13 00:38:31;;;;;;;;;;;3.90;1.00;;;;;;4990246;28;19965;-68
2021/11/13 00:40:56;;;;;;;;;;;3.90;1.00;;;;;;4992971;28;19949;-68
2021/11/13 00:43:22;;;;;;;;;;;3.90;1.00;;;;;;4991445;28;19925;-69
2021/11/13 00:45:48;;;;;;;;;;;3.90;1.00;;;;;;4992548;28;20072;-68
2021/11/13 00:48:13;;;;;;;;;;;3.90;1.00;;;;;;4991701;28;20021;-69
2021/11/13 00:50:40;;;;;;;;;;;3.90;1.00;;;;;;4992233;28;19922;-68
2021/11/13 00:53:06;;;;;;;;;;;3.90;1.00;;;;;;4990114;28;19968;-67
2021/11/13 00:55:31;;;;;;;;;;;3.90;1.00;;;;;;4992458;28;19961;-69
2021/11/13 00:57:57;;;;;;;;;;;3.80;1.00;;;;;;4991492;28;20005;-68
2021/11/13 01:00:23;;;;;;;;;;;3.80;1.00;;;;;;4992018;28;19914;-69
2021/11/13 01:02:49;;;;;;;;;;;3.80;1.00;;;;;;4990880;28;19965;-68
2021/11/13 01:05:15;;;;;;;;;;;3.80;1.00;;;;;;4992403;28;19988;-68
2021/11/13 01:07:41;;;;;;;;;;;3.80;1.00;;;;;;4990275;28;20362;-68
2021/11/13 01:10:07;;;;;;;;;;;3.80;1.00;;;;;;4992244;28;19914;-67
2021/11/13 01:12:33;;;;;;;;;;;3.80;1.00;;;;;;4990772;28;19918;-66
2021/11/13 01:14:59;;;;;;;;;;;3.80;1.00;;;;;;4992345;28;19921;-68
2021/11/13 01:17:24;;;;;;;;;;;3.80;1.00;;;;;;4991523;28;19932;-69
2021/11/13 01:19:50;;;;;;;;;;;3.80;1.00;;;;;;4992544;28;19917;-68
2021/11/13 01:22:16;;;;;;;;;;;3.80;1.00;;;;;;4989600;28;19922;-67
2021/11/13 01:24:41;;;;;;;;;;;3.90;1.00;;;;;;4991725;28;20359;-69
2021/11/13 01:27:07;;;;;;;;;;;3.90;1.00;;;;;;4991343;28;19942;-70
2021/11/13 01:29:33;;;;;;;;;;;4.00;1.00;;;;;;5026824;22;19963;-71
2021/11/13 01:31:59;;;;;;;;;;;4.00;1.00;;;;;;5029543;28;19964;-71
2021/11/13 01:34:25;;;;;;;;;;;4.00;1.00;;;;;;5030542;28;20368;-71
2021/11/13 01:36:50;;;;;;;;;;;4.00;1.00;;;;;;5028272;28;20334;-70
2021/11/13 01:39:16;;;;;;;;;;;4.00;1.00;;;;;;5030438;28;19951;-70
2021/11/13 01:41:41;;;;;;;;;;;4.10;1.00;;;;;;5030030;28;19913;-71
2021/11/13 01:44:07;;;;;;;;;;;4.10;1.00;;;;;;5029568;28;19921;-71
2021/11/13 01:46:33;;;;;;;;;;;4.10;1.00;;;;;;5029666;28;19932;-71
2021/11/13 01:48:58;;;;;;;;;;;4.10;1.00;;;;;;5029947;28;20306;-70
2021/11/13 01:51:26;;;;;;;;;;;4.10;1.00;;;;;;5029888;28;19916;-71
2021/11/13 01:53:52;;;;;;;;;;;4.10;1.00;;;;;;5028087;28;19921;-70
2021/11/13 01:56:20;;;;;;;;;;;4.10;1.00;;;;;;5029963;28;19913;-71
2021/11/13 01:58:50;;;;;;;;;;;4.00;1.00;;;;;;5029225;28;19944;-71
2021/11/13 02:01:16;;;;;;;;;;;4.00;1.00;;;;;;5027730;28;20646;-71
2021/11/13 02:03:44;;;;;;;;;;;4.00;1.00;;;;;;5028882;28;19920;-70
2021/11/13 02:06:10;;;;;;;;;;;4.00;1.00;;;;;;5029499;28;19917;-70
2021/11/13 02:08:35;;;;;;;;;;;4.00;1.00;;;;;;5027581;28;19936;-71
2021/11/13 02:11:01;;;;;;;;;;;3.90;1.00;;;;;;5029273;28;19964;-70
2021/11/13 02:13:27;;;;;;;;;;;3.90;1.00;;;;;;5028401;28;20350;-69
2021/11/13 02:15:52;;;;;;;;;;;3.90;1.00;;;;;;5027396;28;19917;-71
2021/11/13 02:18:18;;;;;;;;;;;3.80;1.00;;;;;;5029001;28;19917;-71
2021/11/13 02:20:44;;;;;;;;;;;3.80;1.00;;;;;;5029171;28;19913;-70
2021/11/13 02:23:18;;;;;;;;;;;3.80;1.00;;;;;;5026685;28;19920;-71
2021/11/13 02:25:44;;;;;;;;;;;3.80;1.00;;;;;;5028467;28;19909;-71
2021/11/13 02:28:11;;;;;;;;;;;3.80;1.00;;;;;;5028596;28;20031;-71
2021/11/13 02:30:37;;;;;;;;;;;3.80;1.00;;;;;;5028934;28;20007;-71
2021/11/13 02:33:03;;;;;;;;;;;3.80;1.00;;;;;;5027466;28;19967;-71
2021/11/13 02:35:31;;;;;;;;;;;3.80;1.00;;;;;;5029208;28;19932;-70
2021/11/13 02:37:57;;;;;;;;;;;3.70;1.00;;;;;;5026807;28;19913;-71
2021/11/13 02:40:22;;;;;;;;;;;3.70;1.00;;;;;;5029088;28;19959;-70
2021/11/13 02:42:49;;;;;;;;;;;3.80;1.00;;;;;;5027260;28;19917;-70
2021/11/13 02:45:15;;;;;;;;;;;3.80;1.00;;;;;;5028778;28;19917;-71
2021/11/13 02:47:42;;;;;;;;;;;3.80;1.00;;;;;;5028683;28;20336;-71
2021/11/13 02:50:09;;;;;;;;;;;3.80;1.00;;;;;;5029217;28;19999;-71
2021/11/13 02:53:01;;;;;;;;;;;3.90;1.00;;;;;;5026197;28;19913;-71
2021/11/13 02:55:27;;;;;;;;;;;3.90;1.00;;;;;;5024700;28;20016;-70
2021/11/13 02:57:53;;;;;;;;;;;4.00;1.00;;;;;;5028451;28;19936;-70
2021/11/13 03:00:20;;;;;;;;;;;4.00;1.00;;;;;;5010529;28;19917;-71
2021/11/13 03:02:46;;;;;;;;;;;4.00;1.00;;;;;;5028029;28;20389;-71
2021/11/13 03:05:41;;;;;;;;;;;4.00;1.00;;;;;;5028432;28;19913;-71
2021/11/13 03:08:06;;;;;;;;;;;4.10;1.00;;;;;;5009652;28;19916;-71
2021/11/13 03:10:34;;;;;;;;;;;4.10;1.00;;;;;;5028685;28;20004;-71
2021/11/13 03:13:00;;;;;;;;;;;4.10;1.00;;;;;;5027271;28;19928;-71
2021/11/13 03:15:25;;;;;;;;;;;4.10;1.00;;;;;;5027860;28;19917;-71
2021/11/13 03:17:52;;;;;;;;;;;4.10;1.00;;;;;;5027933;28;20000;-70
2021/11/13 03:20:19;;;;;;;;;;;4.10;1.00;;;;;;5028076;28;19913;-71
2021/11/13 03:22:45;;;;;;;;;;;4.10;1.00;;;;;;5026021;28;19914;-70
2021/11/13 03:25:13;;;;;;;;;;;4.10;1.00;;;;;;5028136;28;19913;-71
2021/11/13 03:27:40;;;;;;;;;;;4.10;1.00;;;;;;5028042;28;19975;-71
2021/11/13 03:30:06;;;;;;;;;;;4.10;1.00;;;;;;5028146;28;20243;-71
2021/11/13 03:32:32;;;;;;;;;;;4.20;1.00;;;;;;5027195;28;19920;-71
2021/11/13 03:34:58;;;;;;;;;;;4.20;1.00;;;;;;5028236;28;19921;-71
2021/11/13 03:37:24;;;;;;;;;;;4.20;1.00;;;;;;5026688;28;19922;-71
2021/11/13 03:39:49;;;;;;;;;;;4.20;1.00;;;;;;5028855;28;20016;-70
2021/11/13 03:42:15;;;;;;;;;;;4.20;1.00;;;;;;5027143;28;19913;-70
2021/11/13 03:44:40;;;;;;;;;;;4.20;1.00;;;;;;5028636;28;20300;-70
2021/11/13 03:47:06;;;;;;;;;;;4.20;1.00;;;;;;5028073;28;19917;-70
2021/11/13 03:49:31;;;;;;;;;;;4.20;1.00;;;;;;5027348;28;19971;-71
2021/11/13 03:51:59;;;;;;;;;;;4.10;1.00;;;;;;5007993;28;19971;-71
2021/11/13 03:54:25;;;;;;;;;;;4.20;1.00;;;;;;5027862;28;19917;-70
2021/11/13 03:56:50;;;;;;;;;;;4.10;1.00;;;;;;5027414;28;19967;-71
2021/11/13 03:59:16;;;;;;;;;;;4.10;1.00;;;;;;5028273;28;20039;-70
2021/11/13 04:01:42;;;;;;;;;;;4.10;1.00;;;;;;5024562;28;19913;-70
2021/11/13 04:04:07;;;;;;;;;;;4.10;1.00;;;;;;5027650;28;19996;-71
2021/11/13 04:06:33;;;;;;;;;;;4.10;1.00;;;;;;5027299;28;20560;-70
2021/11/13 04:08:58;;;;;;;;;;;4.10;1.00;;;;;;5026811;28;20412;-70
2021/11/13 04:11:24;;;;;;;;;;;4.10;1.00;;;;;;5028293;28;20004;-70
2021/11/13 04:13:49;;;;;;;;;;;4.10;1.00;;;;;;5030591;28;19917;-70
2021/11/13 04:16:15;;;;;;;;;;;4.10;1.00;;;;;;5031535;28;20386;-70
2021/11/13 04:18:40;;;;;;;;;;;4.10;1.00;;;;;;5031213;28;20445;-69
2021/11/13 04:21:06;;;;;;;;;;;4.00;1.00;;;;;;5032130;28;20540;-71
2021/11/13 04:23:32;;;;;;;;;;;4.10;1.00;;;;;;5030370;28;20007;-69
2021/11/13 04:25:58;;;;;;;;;;;4.10;1.00;;;;;;5031715;28;20427;-70
2021/11/13 04:28:23;;;;;;;;;;;4.10;1.00;;;;;;5031367;28;19913;-71
2021/11/13 04:30:49;;;;;;;;;;;4.20;1.00;;;;;;5032184;28;20290;-70
2021/11/13 04:33:15;;;;;;;;;;;4.20;1.00;;;;;;5030430;28;19928;-70
2021/11/13 04:35:48;;;;;;;;;;;4.20;1.00;;;;;;5031803;28;19913;-70
2021/11/13 04:38:14;;;;;;;;;;;4.20;1.00;;;;;;5030512;28;20300;-70
2021/11/13 04:40:40;;;;;;;;;;;4.20;1.00;;;;;;5027549;28;20055;-70
2021/11/13 04:43:06;;;;;;;;;;;4.20;1.00;;;;;;5030386;28;19917;-70
2021/11/13 04:45:32;;;;;;;;;;;4.20;1.00;;;;;;5031317;28;19917;-70
2021/11/13 04:47:57;;;;;;;;;;;4.20;1.00;;;;;;5030790;28;19917;-70
2021/11/13 04:50:25;;;;;;;;;;;4.20;1.00;;;;;;5031286;28;19917;-70
2021/11/13 04:52:53;;;;;;;;;;;4.10;1.00;;;;;;5029449;28;19917;-70
2021/11/13 04:55:19;;;;;;;;;;;4.10;1.00;;;;;;5031266;28;19921;-69
2021/11/13 04:57:45;;;;;;;;;;;4.10;1.00;;;;;;5031148;28;19924;-69
2021/11/13 05:00:13;;;;;;;;;;;4.10;1.00;;;;;;5031475;28;19913;-69
2021/11/13 05:02:38;;;;;;;;;;;4.10;1.00;;;;;;5030685;28;19925;-71
2021/11/13 05:05:04;;;;;;;;;;;4.10;1.00;;;;;;5031323;28;19987;-71
2021/11/13 05:07:30;;;;;;;;;;;4.20;1.00;;;;;;5030538;28;19909;-71
2021/11/13 05:09:55;;;;;;;;;;;4.20;1.00;;;;;;5030988;28;19929;-71
2021/11/13 05:12:21;;;;;;;;;;;4.20;1.00;;;;;;5030299;28;19917;-69
2021/11/13 05:14:47;;;;;;;;;;;4.20;1.00;;;;;;5030525;28;19994;-69
2021/11/13 05:17:12;;;;;;;;;;;4.30;1.00;;;;;;5030307;28;19913;-71
2021/11/13 05:19:38;;;;;;;;;;;4.30;1.00;;;;;;5030667;28;19959;-72
2021/11/13 05:22:04;;;;;;;;;;;4.30;1.00;;;;;;5028915;28;19969;-69
2021/11/13 05:24:30;;;;;;;;;;;4.30;1.00;;;;;;5029660;28;19963;-70
2021/11/13 05:26:55;;;;;;;;;;;4.30;1.00;;;;;;5030125;28;20336;-69
2021/11/13 05:29:21;;;;;;;;;;;4.30;1.00;;;;;;5030447;28;19943;-71
2021/11/13 05:31:46;;;;;;;;;;;4.30;1.00;;;;;;5029511;28;19913;-72
2021/11/13 05:34:13;;;;;;;;;;;4.30;1.00;;;;;;5030256;28;19966;-70
2021/11/13 05:36:39;;;;;;;;;;;4.30;1.00;;;;;;5029688;28;20019;-70
2021/11/13 05:39:05;;;;;;;;;;;4.30;1.00;;;;;;5029710;28;20340;-70
2021/11/13 05:41:30;;;;;;;;;;;4.30;1.00;;;;;;5030204;28;19940;-69
2021/11/13 05:43:56;;;;;;;;;;;4.30;1.00;;;;;;5029498;28;20002;-69
2021/11/13 05:46:21;;;;;;;;;;;4.30;1.00;;;;;;5030542;28;19963;-68
2021/11/13 05:48:47;;;;;;;;;;;4.30;1.00;;;;;;5029798;28;20115;-69
2021/11/13 05:51:12;;;;;;;;;;;4.30;1.00;;;;;;5030428;28;20377;-70
2021/11/13 05:53:38;;;;;;;;;;;4.20;1.00;;;;;;5028888;28;19917;-71
2021/11/13 05:56:04;;;;;;;;;;;4.30;1.00;;;;;;5029849;28;19967;-71
2021/11/13 05:58:29;;;;;;;;;;;4.30;1.00;;;;;;5029081;28;19910;-72
2021/11/13 06:00:55;;;;;;;;;;;4.30;1.00;;;;;;5030282;28;19909;-71
2021/11/13 06:03:20;;;;;;;;;;;4.20;1.00;;;;;;5029937;28;19951;-70
2021/11/13 06:05:46;;;;;;;;;;;4.20;1.00;;;;;;5030539;28;19919;-69
2021/11/13 06:08:11;;;;;;;;;;;4.20;1.00;;;;;;5029564;28;20016;-71
2021/11/13 06:10:37;;;;;;;;;;;4.20;1.00;;;;;;5030382;28;20029;-69
2021/11/13 06:13:03;;;;;;;;;;;4.30;1.00;;;;;;5029586;28;19917;-71
2021/11/13 06:15:28;;;;;;;;;;;4.30;1.00;;;;;;5030598;28;19924;-70
2021/11/13 06:17:54;;;;;;;;;;;4.30;1.00;;;;;;5029695;28;20325;-70
2021/11/13 06:20:19;;;;;;;;;;;4.40;1.00;;;;;;5030421;28;19924;-68
2021/11/13 06:22:45;;;;;;;;;;;4.50;1.00;;;;;;5028337;28;19917;-69
2021/11/13 06:25:12;;;;;;;;;;;4.40;1.00;;;;;;5030148;28;19914;-69
2021/11/13 06:27:38;;;;;;;;;;;4.50;1.00;;;;;;5029649;28;20055;-69
2021/11/13 06:30:05;;;;;;;;;;;4.50;1.00;;;;;;5029882;28;20008;-72
2021/11/13 06:32:31;;;;;;;;;;;4.50;1.00;;;;;;5028797;28;19913;-70
2021/11/13 06:34:59;;;;;;;;;;;4.50;1.00;;;;;;5029053;28;19975;-71
2021/11/13 06:37:25;;;;;;;;;;;4.50;1.00;;;;;;5028551;28;19967;-71
2021/11/13 06:39:50;;;;;;;;;;;4.60;1.00;;;;;;5029949;28;19913;-71
2021/11/13 06:42:16;;;;;;;;;;;4.60;1.00;;;;;;5029029;28;19967;-70
2021/11/13 06:44:41;;;;;;;;;;;4.60;1.00;;;;;;5029885;28;20693;-69
2021/11/13 06:47:07;;;;;;;;;;;4.60;1.00;;;;;;5029400;28;19917;-70
2021/11/13 06:49:32;;;;;;;;;;;4.70;1.00;;;;;;5029732;28;19999;-71
2021/11/13 06:51:58;;;;;;;;;;;4.70;1.00;;;;;;5028748;28;19921;-69
2021/11/13 06:54:24;;;;;;;;;;;4.70;1.00;;;;;;5029701;28;19945;-69
2021/11/13 06:56:49;;;;;;;;;;;4.70;1.00;;;;;;5029849;28;20007;-69
2021/11/13 06:59:15;;;;;;;;;;;4.70;1.00;;;;;;5029421;28;19913;-70
2021/11/13 07:01:41;;;;;;;;;;;4.80;1.00;;;;;;5011452;28;19913;-69
2021/11/13 07:04:06;;;;;;;;;;;4.80;1.00;;;;;;5028926;28;19985;-68
2021/11/13 07:06:32;;;;;;;;;;;4.90;1.00;;;;;;5029614;28;19913;-69
2021/11/13 07:08:57;;;;;;;;;;;4.90;1.00;;;;;;5028918;28;19988;-70
2021/11/13 07:11:23;;;;;;;;;;;4.90;1.00;;;;;;5029581;28;19913;-69
2021/11/13 07:13:48;;;;;;;;;;;5.00;1.00;;;;;;5028905;28;19940;-68
2021/11/13 07:16:14;;;;;;;;;;;5.00;1.00;;;;;;5029615;28;19992;-69
2021/11/13 07:18:39;;;;;;;;;;;5.10;1.00;;;;;;5029017;28;20008;-70
2021/11/13 07:21:06;;;;;;;;;;;5.10;1.00;;;;;;5029001;28;19913;-68
2021/11/13 07:23:32;;;;;;;;;;;5.10;1.00;;;;;;5028375;28;19909;-68
2021/11/13 07:25:59;;;;;;;;;;;5.20;1.00;;;;;;5029660;28;19917;-68
2021/11/13 07:28:38;;;;;;;;;;;5.30;1.00;;;;;;5029291;28;19917;-68
2021/11/13 07:31:04;;;;;;;;;;;5.30;1.00;;;;;;5058439;22;19925;-67
2021/11/13 07:33:30;;;;;;;;;;;5.20;1.00;;;;;;5048409;28;20368;-68
2021/11/13 07:35:55;;;;;;;;;;;5.10;1.00;;;;;;5048846;28;19931;-68
2021/11/13 07:38:21;;;;;;;;;;;5.10;1.00;;;;;;5046784;28;19921;-67
2021/11/13 07:40:47;;;;;;;;;;;5.10;1.00;;;;;;5053339;28;19921;-69
2021/11/13 07:43:12;;;;;;;;;;;5.10;1.00;;;;;;5028213;28;19993;-66
2021/11/13 07:45:38;;;;;;;;;;;5.10;1.00;;;;;;5030332;28;20448;-67
2021/11/13 07:48:07;;;;;;;;;;;5.10;1.00;;;;;;5040485;28;19913;-67
2021/11/13 07:50:34;;;;;;;;;;;5.20;1.00;;;;;;5049330;28;20340;-68
2021/11/13 07:53:00;;;;;;;;;;;5.20;1.00;;;;;;5030322;28;19996;-65
2021/11/13 07:55:25;;;;;;;;;;;5.20;1.00;;;;;;5033205;28;20326;-68
2021/11/13 07:57:51;;;;;;;;;;;5.20;1.00;;;;;;5042808;28;19919;-68
2021/11/13 08:00:18;;;;;;;;;;;5.20;1.00;;;;;;5046099;28;19920;-67
2021/11/13 08:02:44;;;;;;;;;;;5.20;1.00;;;;;;5044703;28;19940;-67
2021/11/13 08:05:10;;;;;;;;;;;5.20;1.00;;;;;;5052633;28;19909;-67
2021/11/13 08:07:36;;;;;;;;;;;5.30;1.00;;;;;;5050590;28;20012;-68
2021/11/13 08:10:02;;;;;;;;;;;5.40;1.00;;;;;;5052818;28;20019;-67
2021/11/13 08:12:28;;;;;;;;;;;5.40;1.00;;;;;;5045544;28;19916;-68
2021/11/13 08:14:53;;;;;;;;;;;5.40;1.00;;;;;;5043570;28;20012;-68
2021/11/13 08:17:19;;;;;;;;;;;5.40;1.00;;;;;;5039126;28;20447;-66
2021/11/13 08:19:44;;;;;;;;;;;5.50;1.00;;;;;;5040782;28;20387;-67
2021/11/13 08:22:10;;;;;;;;;;;5.50;1.00;;;;;;5049355;28;19912;-68
2021/11/13 08:24:36;;;;;;;;;;;5.50;1.00;;;;;;5043771;28;20606;-68
2021/11/13 08:27:02;;;;;;;;;;;5.50;1.00;;;;;;5045488;28;19920;-68
2021/11/13 08:29:28;;;;;;;;;;;5.60;1.00;;;;;;5047756;28;19917;-68
2021/11/13 08:31:53;;;;;;;;;;;5.60;1.00;;;;;;5040579;28;19913;-67
2021/11/13 08:34:19;;;;;;;;;;;5.70;1.00;;;;;;5051607;28;19913;-68
2021/11/13 08:36:44;;;;;;;;;;;5.70;1.00;;;;;;5034477;28;19978;-66
2021/11/13 08:39:11;;;;;;;;;;;5.80;1.00;;;;;;5037750;28;20420;-67
2021/11/13 08:41:37;;;;;;;;;;;5.90;1.00;;;;;;5050883;28;20003;-66
2021/11/13 08:44:03;;;;;;;;;;;5.90;1.00;;;;;;5050003;28;20003;-67
2021/11/13 08:46:29;;;;;;;;;;;6.00;1.00;;;;;;5031772;28;19925;-68
2021/11/13 08:48:55;;;;;;;;;;;6.00;1.00;;;;;;5050244;28;19913;-67
2021/11/13 08:51:20;;;;;;;;;;;6.00;1.00;;;;;;5040847;28;20254;-67
2021/11/13 08:53:53;;;;;;;;;;;6.00;1.00;;;;;;5034265;28;20599;-67
2021/11/13 08:56:20;;;;;;;;;;;6.10;1.00;;;;;;5032125;28;20026;-68
2021/11/13 08:58:46;;;;;;;;;;;6.10;1.00;;;;;;5030955;28;20019;-68
2021/11/13 09:01:11;;;;;;;;;;;6.10;1.00;;;;;;5032166;28;19913;-68
2021/11/13 09:03:38;;;;;;;;;;;6.30;1.00;;;;;;5043751;28;19917;-68
2021/11/13 09:06:06;;;;;;;;;;;6.30;1.00;;;;;;5044796;28;20290;-70
2021/11/13 09:08:31;;;;;;;;;;;6.40;1.00;;;;;;5031038;28;19979;-67
2021/11/13 09:10:57;;;;;;;;;;;6.40;1.00;;;;;;5039579;28;19917;-67
2021/11/13 09:13:26;;;;;;;;;;;6.40;1.00;;;;;;5012688;28;19917;-66
2021/11/13 09:15:53;;;;;;;;;;;6.50;1.00;;;;;;5050472;28;20356;-68
2021/11/13 09:18:18;;;;;;;;;;;6.60;1.00;;;;;;5030903;28;19943;-68
2021/11/13 09:20:44;;;;;;;;;;;6.60;1.00;;;;;;5039899;28;19917;-67
2021/11/13 09:23:12;;;;;;;;;;;6.70;1.00;;;;;;5048095;28;19970;-67
2021/11/13 09:25:38;;;;;;;;;;;6.80;1.00;;;;;;5050253;28;20004;-67
2021/11/13 09:28:04;;;;;;;;;;;6.70;1.00;;;;;;5049932;28;20058;-68
2021/11/13 09:30:31;;;;;;;;;;;6.80;1.00;;;;;;5047251;28;20322;-67
2021/11/13 09:32:57;;;;;;;;;;;6.80;99.90;;;;;;5048449;28;19920;-68
2021/11/13 09:35:23;;;;;;;;;;;6.80;99.90;;;;;;5015930;28;20308;-68
2021/11/13 09:37:48;;;;;;;;;;;6.70;99.90;;;;;;5032986;28;20488;-68
2021/11/13 09:40:16;;;;;;;;;;;6.70;99.90;;;;;;5050790;28;20219;-67
2021/11/13 09:42:44;;;;;;;;;;;6.60;99.90;;;;;;5046727;28;20325;-67
2021/11/13 09:45:10;;;;;;;;;;;6.60;99.90;;;;;;5040208;28;20256;-66
2021/11/13 09:47:36;;;;;;;;;;;6.60;99.90;;;;;;5048274;28;19924;-68
2021/11/13 09:50:03;;;;;;;;;;;6.50;1.00;;;;;;5050303;28;19917;-67
2021/11/13 09:52:29;;;;;;;;;;;6.50;1.00;;;;;;5028834;28;20381;-68
2021/11/13 09:54:54;;;;;;;;;;;6.60;1.00;;;;;;5030963;28;19924;-70
2021/11/13 09:57:20;;;;;;;;;;;6.60;1.00;;;;;;5032313;28;19913;-71
2021/11/13 09:59:46;;;;;;;;;;;6.50;1.00;;;;;;5036999;28;20391;-70
2021/11/13 10:02:11;;;;;;;;;;;6.50;1.00;;;;;;5042621;28;19969;-70
2021/11/13 10:04:37;;;;;;;;;;;6.50;1.00;;;;;;5044831;28;19917;-70
2021/11/13 10:07:02;;;;;;;;;;;6.40;1.00;;;;;;5029924;28;19952;-71
2021/11/13 10:09:28;;;;;;;;;;;6.30;1.00;;;;;;5040099;28;20245;-70
2021/11/13 10:11:53;;;;;;;;;;;6.30;1.00;;;;;;5048984;28;19912;-69
2021/11/13 10:14:32;;;;;;;;;;;6.20;1.00;;;;;;5043079;28;19913;-70
2021/11/13 10:16:59;;;;;;;;;;;6.10;1.00;;;;;;5033239;28;20654;-69
2021/11/13 10:19:26;;;;;;;;;;;6.10;1.00;;;;;;5049718;28;20372;-70
2021/11/13 10:21:52;;;;;;;;;;;6.10;1.00;;;;;;5047305;28;20373;-69
2021/11/13 10:24:20;;;;;;;;;;;6.10;1.00;;;;;;5049903;28;19923;-69
2021/11/13 10:27:11;;;;;;;;;;;6.10;1.00;;;;;;5047516;28;19913;-69
2021/11/13 10:29:38;;;;;;;;;;;6.20;1.00;;;;;;5027178;28;20239;-69
2021/11/13 10:32:11;;;;;;;;;;;6.30;1.00;;;;;;5032012;28;19917;-69
2021/11/13 10:34:41;;;;;;;;;;;6.30;1.00;;;;;;5035574;28;20013;-70
2021/11/13 10:37:13;;;;;;;;;;;6.30;1.00;;;;;;5031325;28;20027;-69
2021/11/13 10:39:41;;;;;;;;;;;6.40;1.00;;;;;;5060990;28;19957;-69
2021/11/13 10:42:13;;;;;;;;;;;6.40;1.00;;;;;;5036200;28;20930;-69
2021/11/13 10:44:41;;;;;;;;;;;6.50;1.00;;;;;;5040753;28;19963;-68
2021/11/13 10:47:09;;;;;;;;;;;6.50;1.00;;;;;;5041277;28;19921;-67
2021/11/13 10:49:34;;;;;;;;;;;6.60;1.00;;;;;;5040883;28;20297;-69
2021/11/13 10:52:02;;;;;;;;;;;6.60;1.00;;;;;;5029363;28;19913;-68
2021/11/13 10:54:28;;;;;;;;;;;6.70;1.00;;;;;;5047807;28;19938;-68
2021/11/13 10:57:01;;;;;;;;;;;6.70;1.00;;;;;;5040781;28;20286;-68
2021/11/13 10:59:28;;;;;;;;;;;6.70;1.00;;;;;;5029668;28;19913;-68
2021/11/13 11:01:56;;;;;;;;;;;6.80;1.00;;;;;;5048229;28;20261;-67
2021/11/13 11:04:23;;;;;;;;;;;6.80;1.00;;;;;;5049286;28;19915;-68
2021/11/13 11:07:12;;;;;;;;;;;6.80;1.00;;;;;;5048179;28;20606;-65
2021/11/13 11:09:57;;;;;;;;;;;6.90;1.00;;;;;;5036448;28;19929;-68
2021/11/13 11:12:26;;;;;;;;;;;7.00;1.00;;;;;;5046826;28;20734;-68
2021/11/13 11:14:52;;;;;;;;;;;7.10;1.00;;;;;;5039559;28;19920;-67
2021/11/13 11:17:19;;;;;;;;;;;7.10;1.00;;;;;;5041196;28;19913;-66
2021/11/13 11:19:47;;;;;;;;;;;7.10;1.00;;;;;;5030821;28;19923;-69
2021/11/13 11:22:13;;;;;;;;;;;7.10;1.00;;;;;;5044829;28;20331;-68
2021/11/13 11:24:39;;;;;;;;;;;7.10;1.00;;;;;;5049069;28;19986;-67
2021/11/13 11:27:04;;;;;;;;;;;7.10;1.00;;;;;;5039155;28;19921;-67
2021/11/13 11:29:31;;;;;;;;;;;7.10;99.90;;;;;;5054125;28;20005;-67
2021/11/13 11:32:00;;;;;;;;;;;7.10;99.90;;;;;;5040511;28;20277;-69
2021/11/13 11:34:28;;;;;;;;;;;7.10;1.00;;;;;;5037243;28;19921;-68
2021/11/13 11:36:55;;;;;;;;;;;7.20;1.00;;;;;;5024500;28;20008;-68
2021/11/13 11:39:20;;;;;;;;;;;7.20;1.00;;;;;;5040128;28;19913;-69
2021/11/13 11:41:46;;;;;;;;;;;7.20;1.00;;;;;;5046905;28;20503;-66
2021/11/13 11:44:13;;;;;;;;;;;7.20;1.00;;;;;;5049197;28;19924;-68
2021/11/13 11:46:38;;;;;;;;;;;7.20;1.00;;;;;;5045940;28;19962;-67
2021/11/13 11:49:04;;;;;;;;;;;7.20;1.00;;;;;;5057000;28;19939;-68
2021/11/13 11:51:30;;;;;;;;;;;7.20;1.00;;;;;;5055496;28;19913;-69
2021/11/13 11:54:00;;;;;;;;;;;7.20;1.00;;;;;;5052367;28;20313;-68
2021/11/13 11:56:26;;;;;;;;;;;7.20;1.00;;;;;;5053822;28;20008;-67
2021/11/13 11:58:52;;;;;;;;;;;7.20;1.00;;;;;;5045351;28;19966;-66
2021/11/13 12:01:25;;;;;;;;;;;7.20;1.00;;;;;;5036405;28;20008;-67
2021/11/13 12:03:50;;;;;;;;;;;7.10;1.00;;;;;;5053798;28;19923;-69
2021/11/13 12:06:16;;;;;;;;;;;7.10;1.00;;;;;;5036857;28;19913;-67
2021/11/13 12:08:41;;;;;;;;;;;7.00;1.00;;;;;;5035130;28;19997;-67
2021/11/13 12:11:16;;;;;;;;;;;7.00;1.00;;;;;;5047671;28;20365;-67
2021/11/13 12:13:42;;;;;;;;;;;7.00;1.00;;;;;;5055645;28;20070;-69
2021/11/13 12:16:07;;;;;;;;;;;7.00;1.00;;;;;;5046303;28;19976;-67
2021/11/13 12:18:35;;;;;;;;;;;7.00;1.00;;;;;;5049398;28;19919;-68
2021/11/13 12:21:04;;;;;;;;;;;7.10;1.00;;;;;;5055243;28;19912;-67
2021/11/13 12:23:31;;;;;;;;;;;7.10;1.00;;;;;;5053720;28;19916;-69
2021/11/13 12:26:10;;;;;;;;;;;7.10;1.00;;;;;;5054333;28;19912;-67
2021/11/13 12:28:42;;;;;;;;;;;7.10;1.00;;;;;;5050519;28;20073;-69
2021/11/13 12:31:10;;;;;;;;;;;7.10;1.00;;;;;;5036097;28;19971;-68
2021/11/13 12:33:36;;;;;;;;;;;7.10;1.00;;;;;;5044175;28;20471;-68
2021/11/13 12:36:07;;;;;;;;;;;7.10;1.00;;;;;;5052755;28;19917;-68
2021/11/13 12:38:36;;;;;;;;;;;7.20;1.00;;;;;;5039252;28;19957;-67
2021/11/13 12:41:18;;;;;;;;;;;7.20;1.00;;;;;;5032353;28;19910;-68
2021/11/13 12:43:50;;;;;;;;;;;7.20;1.00;;;;;;5045061;28;20327;-68
2021/11/13 12:46:23;;;;;;;;;;;7.30;1.00;;;;;;5031295;28;19912;-68
2021/11/13 12:48:49;;;;;;;;;;;7.30;1.00;;;;;;5032280;28;19917;-68
2021/11/13 12:51:19;;;;;;;;;;;7.30;1.00;;;;;;5059961;28;20417;-68
2021/11/13 12:53:53;;;;;;;;;;;7.30;1.00;;;;;;5032370;28;19908;-69
2021/11/13 12:56:38;;;;;;;;;;;7.40;1.00;;;;;;5052296;28;20384;-68
2021/11/13 12:59:03;;;;;;;;;;;7.50;1.00;;;;;;5051165;28;19916;-69
2021/11/13 13:01:28;;;;;;;;;;;7.50;1.00;;;;;;5050910;28;19913;-68
2021/11/13 13:03:59;;;;;;;;;;;7.50;1.00;;;;;;5050857;28;20378;-69
2021/11/13 13:06:24;;;;;;;;;;;7.60;1.00;;;;;;5051164;28;19913;-68
2021/11/13 13:08:50;;;;;;;;;;;7.60;1.00;;;;;;5049540;28;20376;-68
2021/11/13 13:11:15;;;;;;;;;;;7.50;1.00;;;;;;5051295;28;19908;-69
2021/11/13 13:13:41;;;;;;;;;;;7.50;1.00;;;;;;5047708;28;20350;-69
2021/11/13 13:16:07;;;;;;;;;;;7.50;1.00;;;;;;5045719;28;20428;-69
2021/11/13 13:18:33;;;;;;;;;;;7.50;1.00;;;;;;5051240;28;20280;-69
2021/11/13 13:20:59;;;;;;;;;;;7.50;1.00;;;;;;5050961;28;19952;-68
2021/11/13 13:23:26;;;;;;;;;;;7.50;1.00;;;;;;5048952;28;19948;-68
2021/11/13 13:25:54;;;;;;;;;;;7.50;1.00;;;;;;5036643;28;19917;-68
2021/11/13 13:28:24;;;;;;;;;;;7.50;1.00;;;;;;5047511;28;19957;-68
2021/11/13 13:30:50;;;;;;;;;;;7.50;1.00;;;;;;5036824;22;19957;-70
2021/11/13 13:33:16;;;;;;;;;;;7.50;1.00;;;;;;5009627;28;19913;-70
2021/11/13 13:35:42;;;;;;;;;;;7.50;1.00;;;;;;5010363;28;19924;-70
2021/11/13 13:38:15;;;;;;;;;;;7.50;1.00;;;;;;5008794;28;20696;-70
2021/11/13 13:40:46;;;;;;;;;;;7.60;1.00;;;;;;5002714;28;19921;-69
2021/11/13 13:43:17;;;;;;;;;;;7.60;1.00;;;;;;5008952;28;19913;-69
2021/11/13 13:45:47;;;;;;;;;;;7.60;1.00;;;;;;5010375;28;19935;-71
2021/11/13 13:48:17;;;;;;;;;;;7.60;1.00;;;;;;5009976;28;20270;-71
2021/11/13 13:50:46;;;;;;;;;;;7.60;1.00;;;;;;5026573;28;19909;-69
2021/11/13 13:53:12;;;;;;;;;;;7.60;1.00;;;;;;5027617;28;19929;-69
2021/11/13 13:55:38;;;;;;;;;;;7.70;1.00;;;;;;5029667;28;20037;-69
2021/11/13 13:58:07;;;;;;;;;;;7.70;1.00;;;;;;5021989;28;19914;-72
2021/11/13 14:00:33;;;;;;;;;;;7.60;1.00;;;;;;5010029;28;19909;-68
2021/11/13 14:02:59;;;;;;;;;;;7.60;1.00;;;;;;5009052;28;19963;-70
2021/11/13 14:05:26;;;;;;;;;;;7.70;1.00;;;;;;5009354;28;19937;-70
2021/11/13 14:08:01;;;;;;;;;;;7.80;1.00;;;;;;5008247;28;19921;-70
2021/11/13 14:10:27;;;;;;;;;;;7.80;1.00;;;;;;5010011;28;19933;-70
2021/11/13 14:12:54;;;;;;;;;;;7.80;1.00;;;;;;4991386;28;19997;-73
2021/11/13 14:15:23;;;;;;;;;;;7.90;1.00;;;;;;5009787;28;20009;-72
2021/11/13 14:17:58;;;;;;;;;;;8.00;1.00;;;;;;5009212;28;19918;-70
2021/11/13 14:20:25;;;;;;;;;;;8.00;1.00;;;;;;5009465;28;19945;-73
2021/11/13 14:23:02;;;;;;;;;;;8.00;1.00;;;;;;5006157;28;19918;-73
2021/11/13 14:25:28;;;;;;;;;;;8.00;1.00;;;;;;4998933;28;20401;-71
2021/11/13 14:27:54;;;;;;;;;;;8.10;1.00;;;;;;5001867;28;19996;-76
2021/11/13 14:30:19;;;;;;;;;;;8.00;1.00;;;;;;5009876;28;19996;-70
2021/11/13 14:32:52;;;;;;;;;;;8.10;1.00;;;;;;4997093;28;19933;-71
2021/11/13 14:35:18;;;;;;;;;;;8.00;1.00;;;;;;5007956;28;20051;-72
2021/11/13 14:37:44;;;;;;;;;;;8.00;1.00;;;;;;5005935;28;19952;-71
2021/11/13 14:40:10;;;;;;;;;;;8.00;1.00;;;;;;5008539;28;19929;-70
2021/11/13 14:42:36;;;;;;;;;;;8.00;1.00;;;;;;5007673;28;20312;-71